createdAt,value
2019-06-25T00:01:37.445Z,99.90
2019-06-25T00:04:05.842Z,99.90
2019-06-25T00:06:34.246Z,99.90
2019-06-25T00:09:02.653Z,99.90
2019-06-25T00:11:31.077Z,99.90
2019-06-25T00:13:59.696Z,99.90
2019-06-25T00:16:28.093Z,99.90
2019-06-25T00:18:56.503Z,99.90
2019-06-25T00:21:24.907Z,99.90
2019-06-25T00:23:53.300Z,99.90
2019-06-25T00:26:21.704Z,99.90
2019-06-25T00:28:50.098Z,99.90
2019-06-25T00:31:18.510Z,99.90
2019-06-25T00:33:46.915Z,99.90
2019-06-25T00:36:15.329Z,99.90
2019-06-25T00:38:43.730Z,99.90
2019-06-25T00:41:12.121Z,99.90
2019-06-25T00:43:40.826Z,99.90
2019-06-25T00:46:09.455Z,99.90
2019-06-25T00:48:37.847Z,99.90
2019-06-25T00:51:06.282Z,99.90
2019-06-25T00:53:34.697Z,99.90
2019-06-25T00:56:03.081Z,99.90
2019-06-25T00:58:31.486Z,99.90
2019-06-25T01:00:59.884Z,99.90
2019-06-25T01:03:35.845Z,99.90
2019-06-25T01:06:04.270Z,99.90
2019-06-25T01:08:32.662Z,99.90
2019-06-25T01:11:01.139Z,99.90
2019-06-25T01:13:29.527Z,99.90
2019-06-25T01:15:57.921Z,99.90
2019-06-25T01:18:26.318Z,99.90
2019-06-25T01:20:54.714Z,99.90
2019-06-25T01:23:23.110Z,99.90
2019-06-25T01:25:51.518Z,99.90
2019-06-25T01:28:20.062Z,99.90
2019-06-25T01:30:48.459Z,99.90
2019-06-25T01:33:17.232Z,99.90
2019-06-25T01:35:46.007Z,99.90
2019-06-25T01:38:14.411Z,99.90
2019-06-25T01:40:42.867Z,99.90
2019-06-25T01:43:11.521Z,99.90
2019-06-25T01:45:39.934Z,99.90
2019-06-25T01:48:08.338Z,99.90
2019-06-25T01:50:36.730Z,99.90
2019-06-25T01:53:05.706Z,99.90
2019-06-25T01:55:34.158Z,99.90
2019-06-25T01:58:02.594Z,99.90
2019-06-25T02:00:43.841Z,99.90
2019-06-25T02:03:01.246Z,99.90
2019-06-25T02:05:29.641Z,99.90
2019-06-25T02:07:58.048Z,99.90
2019-06-25T02:10:26.639Z,99.90
2019-06-25T02:12:55.084Z,99.90
2019-06-25T02:15:23.482Z,99.90
2019-06-25T02:17:52.340Z,99.90
2019-06-25T02:20:20.807Z,99.90
2019-06-25T02:22:49.212Z,99.90
2019-06-25T02:25:17.691Z,99.90
2019-06-25T02:27:46.103Z,99.90
2019-06-25T02:30:14.894Z,99.90
2019-06-25T02:32:43.297Z,99.90
2019-06-25T02:35:11.969Z,99.90
2019-06-25T02:37:40.374Z,99.90
2019-06-25T02:40:10.184Z,99.90
2019-06-25T02:42:38.999Z,99.90
2019-06-25T02:45:08.907Z,99.90
2019-06-25T02:47:37.625Z,99.90
2019-06-25T02:50:08.478Z,99.90
2019-06-25T02:52:37.037Z,99.90
2019-06-25T02:55:06.703Z,99.90
2019-06-25T02:57:35.263Z,99.90
2019-06-25T03:00:10.987Z,99.90
2019-06-25T03:02:38.743Z,99.90
2019-06-25T03:05:08.376Z,99.90
2019-06-25T03:07:37.040Z,99.90
2019-06-25T03:10:06.481Z,99.90
2019-06-25T03:12:34.939Z,99.90
2019-06-25T03:15:04.739Z,99.90
2019-06-25T03:17:33.202Z,99.90
2019-06-25T03:20:01.674Z,99.90
2019-06-25T03:22:30.118Z,99.90
2019-06-25T03:24:58.532Z,99.90
2019-06-25T03:27:26.936Z,99.90
2019-06-25T03:29:55.361Z,99.90
2019-06-25T03:32:23.760Z,99.90
2019-06-25T03:34:52.163Z,99.90
2019-06-25T03:37:20.562Z,99.90
2019-06-25T03:39:48.974Z,99.90
2019-06-25T03:42:17.626Z,99.90
2019-06-25T03:44:46.021Z,99.90
2019-06-25T03:47:14.425Z,99.90
2019-06-25T03:49:42.830Z,99.90
2019-06-25T03:52:11.235Z,99.90
2019-06-25T03:54:39.644Z,99.90
2019-06-25T03:57:08.041Z,99.90
2019-06-25T03:59:36.450Z,99.90
2019-06-25T04:02:16.967Z,99.90
2019-06-25T04:04:34.982Z,99.90
2019-06-25T04:07:03.399Z,99.90
2019-06-25T04:09:31.802Z,99.90
2019-06-25T04:12:00.211Z,99.90
2019-06-25T04:14:28.617Z,99.90
2019-06-25T04:16:57.581Z,99.90
2019-06-25T04:19:25.996Z,99.90
2019-06-25T04:21:54.389Z,99.90
2019-06-25T04:24:22.782Z,99.90
2019-06-25T04:26:51.183Z,99.90
2019-06-25T04:29:19.617Z,99.90
2019-06-25T04:31:48.065Z,99.90
2019-06-25T04:34:16.706Z,99.90
2019-06-25T04:36:45.152Z,99.90
2019-06-25T04:39:13.810Z,99.90
2019-06-25T04:41:42.213Z,99.90
2019-06-25T04:44:10.613Z,99.90
2019-06-25T04:46:39.014Z,99.90
2019-06-25T04:49:07.409Z,99.90
2019-06-25T04:51:35.817Z,99.90
2019-06-25T04:54:04.219Z,99.90
2019-06-25T04:56:32.622Z,99.90
2019-06-25T04:59:01.029Z,99.90
2019-06-25T05:01:29.446Z,99.90
2019-06-25T05:03:57.848Z,99.90
2019-06-25T05:06:26.323Z,99.90
2019-06-25T05:08:54.953Z,99.90
2019-06-25T05:11:23.365Z,99.90
2019-06-25T05:13:52.003Z,99.90
2019-06-25T05:16:20.941Z,99.90
2019-06-25T05:18:49.341Z,99.90
2019-06-25T05:21:17.827Z,99.90
2019-06-25T05:23:46.291Z,99.90
2019-06-25T05:26:14.957Z,99.90
2019-06-25T05:28:43.485Z,99.90
2019-06-25T05:31:11.966Z,99.90
2019-06-25T05:33:40.382Z,99.90
2019-06-25T05:36:26.720Z,99.90
2019-06-25T05:38:55.114Z,99.90
2019-06-25T05:41:23.767Z,99.90
2019-06-25T05:43:52.226Z,99.90
2019-06-25T05:46:20.620Z,99.90
2019-06-25T05:48:49.033Z,99.90
2019-06-25T05:51:17.429Z,99.90
2019-06-25T05:53:45.829Z,99.90
2019-06-25T05:56:14.891Z,99.90
2019-06-25T05:58:43.306Z,99.90
2019-06-25T06:01:11.697Z,99.90
2019-06-25T06:03:40.218Z,99.90
2019-06-25T06:06:08.751Z,99.90
2019-06-25T06:08:37.217Z,99.90
2019-06-25T06:11:05.866Z,99.90
2019-06-25T06:13:34.265Z,99.90
2019-06-25T06:16:02.687Z,99.90
2019-06-25T06:18:36.571Z,99.90
2019-06-25T06:21:05.496Z,99.90
2019-06-25T06:23:34.328Z,99.90
2019-06-25T06:26:03.091Z,99.90
2019-06-25T06:28:31.556Z,99.90
2019-06-25T06:31:15.509Z,99.90
2019-06-25T06:33:36.686Z,96.20
2019-06-25T06:36:00.856Z,96.80
2019-06-25T06:38:29.270Z,95.20
2019-06-25T06:40:57.702Z,93.70
2019-06-25T06:43:26.241Z,92.90
2019-06-25T06:45:55.511Z,92.10
2019-06-25T06:48:23.982Z,91.90
2019-06-25T06:50:52.622Z,92.20
2019-06-25T06:53:22.245Z,92.50
2019-06-25T06:55:50.943Z,91.40
2019-06-25T06:58:19.422Z,90.90
2019-06-25T07:00:48.144Z,90.80
2019-06-25T07:03:16.613Z,90.80
2019-06-25T07:05:45.314Z,90.50
2019-06-25T07:08:13.744Z,91.20
2019-06-25T07:10:42.326Z,90.40
2019-06-25T07:13:11.014Z,91.20
2019-06-25T07:15:39.428Z,92.40
2019-06-25T07:18:08.074Z,89.90
2019-06-25T07:20:36.524Z,89.00
2019-06-25T07:23:05.158Z,87.50
2019-06-25T07:25:33.701Z,86.70
2019-06-25T07:28:02.231Z,89.30
2019-06-25T07:30:30.813Z,85.80
2019-06-25T07:32:59.318Z,85.40
2019-06-25T07:35:27.798Z,86.70
2019-06-25T07:37:56.199Z,86.00
2019-06-25T07:40:24.847Z,89.30
2019-06-25T07:42:53.243Z,88.80
2019-06-25T07:45:21.784Z,89.70
2019-06-25T07:47:50.190Z,89.50
2019-06-25T07:50:18.968Z,88.10
2019-06-25T07:52:47.652Z,87.50
2019-06-25T07:55:16.114Z,85.70
2019-06-25T07:57:44.593Z,88.00
2019-06-25T08:00:13.930Z,86.10
2019-06-25T08:02:48.351Z,85.20
2019-06-25T08:05:17.483Z,82.90
2019-06-25T08:07:45.886Z,80.20
2019-06-25T08:10:14.890Z,85.30
2019-06-25T08:12:43.287Z,81.70
2019-06-25T08:15:12.424Z,84.40
2019-06-25T08:17:41.081Z,82.40
2019-06-25T08:20:12.028Z,81.00
2019-06-25T08:22:40.722Z,79.80
2019-06-25T08:25:09.504Z,78.80
2019-06-25T08:27:37.903Z,78.70
2019-06-25T08:30:08.189Z,78.40
2019-06-25T08:32:36.680Z,82.50
2019-06-25T08:35:07.215Z,81.40
2019-06-25T08:37:35.599Z,82.60
2019-06-25T08:40:19.071Z,82.10
2019-06-25T08:42:36.110Z,82.40
2019-06-25T08:45:07.636Z,82.00
2019-06-25T08:47:36.288Z,80.30
2019-06-25T08:50:05.940Z,82.90
2019-06-25T08:52:34.682Z,78.50
2019-06-25T08:55:03.134Z,78.80
2019-06-25T08:57:31.534Z,77.40
2019-06-25T09:00:00.082Z,74.90
2019-06-25T09:02:28.474Z,74.90
2019-06-25T09:04:59.529Z,74.60
2019-06-25T09:07:27.254Z,74.20
2019-06-25T09:09:55.658Z,73.10
2019-06-25T09:12:24.377Z,75.20
2019-06-25T09:14:52.796Z,74.60
2019-06-25T09:17:21.199Z,73.00
2019-06-25T09:19:50.800Z,71.80
2019-06-25T09:22:19.654Z,71.40
2019-06-25T09:24:48.186Z,72.70
2019-06-25T09:27:16.822Z,72.90
2019-06-25T09:29:45.445Z,72.80
2019-06-25T09:32:13.972Z,72.90
2019-06-25T09:34:42.679Z,71.90
2019-06-25T09:37:11.313Z,71.60
2019-06-25T09:39:39.245Z,73.10
2019-06-25T09:42:06.633Z,70.90
2019-06-25T09:44:34.069Z,71.20
2019-06-25T09:47:02.873Z,71.80
2019-06-25T09:49:32.678Z,73.00
2019-06-25T09:52:02.619Z,70.60
2019-06-25T09:54:31.416Z,69.00
2019-06-25T09:57:00.364Z,69.80
2019-06-25T09:59:29.487Z,68.60
2019-06-25T10:01:57.990Z,69.60
2019-06-25T10:04:26.828Z,68.00
2019-06-25T10:06:55.338Z,70.60
2019-06-25T10:09:23.764Z,65.30
2019-06-25T10:11:52.407Z,66.00
2019-06-25T10:14:22.706Z,66.60
2019-06-25T10:16:51.358Z,67.70
2019-06-25T10:19:19.762Z,67.80
2019-06-25T10:21:54.087Z,69.80
2019-06-25T10:24:22.499Z,68.00
2019-06-25T10:26:50.916Z,65.90
2019-06-25T10:29:19.307Z,67.80
2019-06-25T10:31:47.710Z,68.70
2019-06-25T10:34:16.097Z,67.90
2019-06-25T10:36:44.489Z,66.00
2019-06-25T10:39:12.895Z,66.10
2019-06-25T10:41:41.527Z,65.90
2019-06-25T10:44:10.274Z,67.90
2019-06-25T10:46:38.939Z,67.60
2019-06-25T10:49:09.318Z,66.60
2019-06-25T10:51:37.714Z,65.60
2019-06-25T10:54:06.599Z,66.90
2019-06-25T10:56:35.255Z,66.40
2019-06-25T10:59:03.723Z,66.90
2019-06-25T11:01:32.333Z,66.30
2019-06-25T11:04:00.746Z,64.70
2019-06-25T11:06:29.379Z,66.30
2019-06-25T11:08:57.844Z,64.70
2019-06-25T11:11:26.244Z,66.60
2019-06-25T11:14:07.881Z,64.10
2019-06-25T11:16:25.035Z,64.80
2019-06-25T11:18:53.443Z,65.00
2019-06-25T11:21:22.085Z,64.90
2019-06-25T11:23:50.487Z,65.70
2019-06-25T11:26:23.395Z,63.50
2019-06-25T11:28:49.071Z,64.60
2019-06-25T11:31:17.522Z,66.20
2019-06-25T11:33:45.934Z,64.60
2019-06-25T11:36:21.238Z,64.60
2019-06-25T11:38:44.682Z,63.60
2019-06-25T11:41:13.074Z,65.60
2019-06-25T11:43:44.588Z,63.00
2019-06-25T11:46:11.651Z,63.20
2019-06-25T11:48:40.329Z,62.70
2019-06-25T11:51:08.787Z,60.60
2019-06-25T11:53:37.170Z,62.80
2019-06-25T11:56:05.675Z,60.70
2019-06-25T11:58:34.130Z,60.50
2019-06-25T12:01:02.861Z,60.80
2019-06-25T12:03:31.254Z,61.30
2019-06-25T12:05:59.903Z,62.60
2019-06-25T12:08:28.370Z,59.70
2019-06-25T12:10:56.806Z,61.40
2019-06-25T12:13:25.429Z,60.40
2019-06-25T12:15:54.073Z,60.80
2019-06-25T12:18:22.462Z,59.70
2019-06-25T12:20:50.886Z,59.80
2019-06-25T12:23:19.265Z,60.50
2019-06-25T12:25:47.658Z,60.20
2019-06-25T12:28:16.054Z,61.70
2019-06-25T12:30:44.476Z,59.80
2019-06-25T12:33:13.201Z,62.00
2019-06-25T12:35:41.598Z,60.40
2019-06-25T12:38:10.003Z,61.60
2019-06-25T12:40:38.638Z,58.60
2019-06-25T12:43:07.098Z,58.90
2019-06-25T12:45:35.505Z,59.90
2019-06-25T12:48:04.275Z,58.80
2019-06-25T12:50:32.944Z,59.00
2019-06-25T12:53:01.351Z,58.40
2019-06-25T12:55:29.734Z,59.80
2019-06-25T12:57:58.176Z,59.70
2019-06-25T13:00:27.796Z,59.60
2019-06-25T13:02:56.199Z,59.40
2019-06-25T13:05:24.602Z,58.90
2019-06-25T13:07:52.992Z,58.80
2019-06-25T13:10:21.741Z,61.40
2019-06-25T13:12:50.142Z,60.00
2019-06-25T13:15:18.711Z,60.20
2019-06-25T13:17:47.354Z,59.30
2019-06-25T13:20:15.916Z,59.30
2019-06-25T13:22:44.322Z,59.20
2019-06-25T13:25:12.873Z,59.10
2019-06-25T13:27:41.276Z,58.90
2019-06-25T13:30:10.617Z,60.90
2019-06-25T13:32:39.019Z,62.10
2019-06-25T13:35:08.755Z,59.50
2019-06-25T13:37:43.107Z,58.50
2019-06-25T13:40:13.118Z,58.60
2019-06-25T13:42:41.690Z,60.20
2019-06-25T13:45:10.618Z,61.00
2019-06-25T13:47:39.047Z,58.60
2019-06-25T13:50:08.477Z,58.90
2019-06-25T13:52:36.874Z,58.80
2019-06-25T13:55:07.211Z,58.50
2019-06-25T13:57:48.663Z,59.70
2019-06-25T14:00:12.876Z,60.70
2019-06-25T14:02:41.373Z,59.60
2019-06-25T14:05:10.706Z,60.20
2019-06-25T14:07:39.175Z,60.10
2019-06-25T14:10:09.298Z,59.40
2019-06-25T14:12:37.845Z,60.40
2019-06-25T14:15:07.788Z,61.00
2019-06-25T14:17:36.177Z,60.80
2019-06-25T14:20:08.208Z,59.80
2019-06-25T14:22:36.595Z,61.20
2019-06-25T14:25:06.189Z,61.80
2019-06-25T14:27:35.910Z,61.70
2019-06-25T14:30:07.425Z,60.40
2019-06-25T14:32:36.146Z,61.40
2019-06-25T14:35:06.085Z,62.20
2019-06-25T14:37:35.659Z,60.90
2019-06-25T14:40:07.778Z,62.00
2019-06-25T14:42:36.178Z,61.90
2019-06-25T14:45:08.921Z,62.40
2019-06-25T14:47:37.327Z,62.10
2019-06-25T14:50:06.660Z,62.30
2019-06-25T14:52:35.065Z,62.30
2019-06-25T14:55:03.939Z,62.20
2019-06-25T14:57:32.578Z,62.00
2019-06-25T15:00:00.975Z,60.80
2019-06-25T15:02:29.448Z,62.90
2019-06-25T15:04:57.963Z,62.30
2019-06-25T15:07:26.374Z,65.60
2019-06-25T15:09:54.777Z,64.60
2019-06-25T15:12:23.177Z,63.40
2019-06-25T15:14:51.583Z,62.30
2019-06-25T15:17:19.968Z,62.90
2019-06-25T15:19:48.397Z,62.60
2019-06-25T15:22:16.765Z,64.20
2019-06-25T15:24:45.173Z,63.00
2019-06-25T15:27:13.576Z,61.70
2019-06-25T15:29:41.975Z,63.60
2019-06-25T15:32:10.370Z,62.10
2019-06-25T15:34:39.010Z,61.70
2019-06-25T15:37:07.414Z,64.30
2019-06-25T15:39:35.818Z,65.80
2019-06-25T15:42:04.378Z,63.40
2019-06-25T15:44:32.780Z,62.00
2019-06-25T15:47:01.226Z,63.30
2019-06-25T15:49:29.648Z,63.60
2019-06-25T15:51:58.039Z,64.40
2019-06-25T15:54:26.443Z,66.00
2019-06-25T15:56:54.840Z,64.30
2019-06-25T15:59:23.492Z,66.60
2019-06-25T16:01:52.181Z,64.30
2019-06-25T16:04:20.882Z,63.90
2019-06-25T16:06:49.349Z,62.40
2019-06-25T16:09:18.690Z,64.50
2019-06-25T16:11:47.087Z,64.50
2019-06-25T16:14:15.789Z,63.80
2019-06-25T16:16:44.448Z,64.10
2019-06-25T16:19:13.174Z,66.60
2019-06-25T16:21:41.815Z,65.50
2019-06-25T16:24:10.219Z,62.10
2019-06-25T16:26:38.870Z,63.80
2019-06-25T16:29:07.262Z,65.10
2019-06-25T16:31:35.895Z,60.50
2019-06-25T16:34:04.374Z,60.80
2019-06-25T16:36:32.783Z,60.10
2019-06-25T16:39:01.181Z,62.70
2019-06-25T16:41:29.826Z,62.20
2019-06-25T16:43:58.465Z,62.10
2019-06-25T16:46:27.116Z,63.30
2019-06-25T16:48:55.512Z,61.00
2019-06-25T16:51:23.926Z,61.20
2019-06-25T16:53:52.337Z,63.00
2019-06-25T16:56:21.087Z,62.20
2019-06-25T16:58:49.720Z,63.80
2019-06-25T17:01:18.384Z,61.80
2019-06-25T17:03:46.838Z,62.30
2019-06-25T17:06:15.513Z,61.70
2019-06-25T17:08:47.903Z,62.20
2019-06-25T17:11:14.275Z,61.00
2019-06-25T17:13:42.676Z,63.00
2019-06-25T17:16:23.083Z,61.50
2019-06-25T17:18:41.203Z,63.80
2019-06-25T17:21:09.607Z,68.50
2019-06-25T17:23:38.009Z,66.90
2019-06-25T17:26:06.407Z,73.50
2019-06-25T17:28:35.039Z,74.40
2019-06-25T17:31:03.738Z,73.80
2019-06-25T17:33:32.166Z,75.40
2019-06-25T17:36:00.803Z,75.20
2019-06-25T17:38:29.208Z,75.20
2019-06-25T17:40:57.617Z,77.40
2019-06-25T17:43:26.067Z,74.90
2019-06-25T17:45:54.471Z,78.80
2019-06-25T17:48:23.101Z,82.60
2019-06-25T17:50:51.546Z,85.70
2019-06-25T17:53:35.524Z,85.20
2019-06-25T17:55:50.109Z,86.70
2019-06-25T17:58:18.747Z,88.80
2019-06-25T18:00:47.823Z,87.90
2019-06-25T18:03:16.227Z,89.70
2019-06-25T18:05:45.115Z,90.00
2019-06-25T18:08:13.761Z,91.00
2019-06-25T18:10:42.245Z,93.80
2019-06-25T18:13:10.890Z,96.10
2019-06-25T18:15:39.304Z,97.00
2019-06-25T18:18:07.690Z,99.50
2019-06-25T18:20:36.108Z,99.90
2019-06-25T18:23:04.588Z,99.90
2019-06-25T18:25:33.041Z,99.90
2019-06-25T18:28:01.474Z,99.90
2019-06-25T18:30:29.870Z,99.90
2019-06-25T18:32:58.526Z,99.90
2019-06-25T18:35:26.975Z,99.90
2019-06-25T18:37:55.383Z,99.90
2019-06-25T18:40:24.596Z,99.90
2019-06-25T18:42:53.080Z,99.90
2019-06-25T18:45:21.485Z,99.90
2019-06-25T18:47:49.943Z,99.90
2019-06-25T18:50:18.510Z,99.90
2019-06-25T18:52:46.970Z,99.90
2019-06-25T18:55:15.673Z,99.90
2019-06-25T18:57:44.073Z,99.90
2019-06-25T19:00:12.721Z,99.90
2019-06-25T19:02:41.108Z,99.90
2019-06-25T19:05:10.134Z,99.90
2019-06-25T19:07:38.543Z,99.90
2019-06-25T19:10:07.143Z,99.90
2019-06-25T19:12:35.551Z,99.90
2019-06-25T19:15:07.447Z,99.90
2019-06-25T19:17:36.830Z,99.90
2019-06-25T19:20:05.988Z,99.90
2019-06-25T19:22:34.733Z,99.90
2019-06-25T19:25:03.201Z,99.90
2019-06-25T19:27:31.834Z,99.90
2019-06-25T19:30:00.271Z,99.90
2019-06-25T19:32:28.721Z,99.90
2019-06-25T19:34:57.118Z,99.90
2019-06-25T19:37:25.769Z,99.90
2019-06-25T19:39:54.177Z,99.90
2019-06-25T19:42:22.582Z,99.90
2019-06-25T19:44:50.991Z,99.90
2019-06-25T19:47:19.696Z,99.90
2019-06-25T19:49:48.153Z,99.90
2019-06-25T19:52:16.911Z,99.90
2019-06-25T19:54:45.391Z,99.90
2019-06-25T19:57:13.955Z,99.90
2019-06-25T19:59:42.356Z,99.90
2019-06-25T20:02:10.816Z,99.90
2019-06-25T20:04:39.222Z,99.90
2019-06-25T20:07:07.888Z,99.90
2019-06-25T20:09:36.828Z,99.90
2019-06-25T20:12:05.345Z,99.90
2019-06-25T20:14:34.037Z,99.90
2019-06-25T20:17:05.275Z,99.90
2019-06-25T20:19:33.775Z,99.90
2019-06-25T20:22:02.191Z,99.90
2019-06-25T20:24:30.880Z,99.90
2019-06-25T20:26:59.284Z,99.90
2019-06-25T20:29:28.016Z,99.90
2019-06-25T20:31:56.488Z,99.90
2019-06-25T20:34:25.077Z,99.90
2019-06-25T20:36:53.507Z,99.90
2019-06-25T20:39:21.886Z,99.90
2019-06-25T20:41:50.709Z,99.90
2019-06-25T20:44:19.407Z,99.90
2019-06-25T20:46:47.871Z,99.90
2019-06-25T20:49:19.435Z,99.90
2019-06-25T20:51:48.129Z,99.90
2019-06-25T20:54:17.057Z,99.90
2019-06-25T20:56:45.514Z,99.90
2019-06-25T20:59:14.489Z,99.90
2019-06-25T21:01:43.288Z,99.90
2019-06-25T21:04:13.135Z,99.90
2019-06-25T21:09:29.458Z,99.90
2019-06-25T21:11:58.226Z,99.90
2019-06-25T21:14:26.890Z,99.90
2019-06-25T21:16:55.281Z,99.90
2019-06-25T21:19:23.910Z,99.90
2019-06-25T21:21:52.316Z,99.90
2019-06-25T21:24:20.702Z,99.90
2019-06-25T21:26:49.106Z,99.90
2019-06-25T21:29:17.744Z,99.90
2019-06-25T21:31:47.953Z,99.90
2019-06-25T21:34:16.243Z,99.90
2019-06-25T21:36:44.630Z,99.90
2019-06-25T21:39:13.059Z,99.90
2019-06-25T21:41:41.671Z,99.90
2019-06-25T21:44:13.906Z,99.90
2019-06-25T21:46:40.198Z,99.90
2019-06-25T21:49:08.623Z,99.90
2019-06-25T21:51:37.021Z,99.90
2019-06-25T21:54:05.414Z,99.90
2019-06-25T21:56:33.814Z,99.90
2019-06-25T21:59:02.218Z,99.90
2019-06-25T22:01:32.438Z,99.90
2019-06-25T22:04:00.829Z,99.90
2019-06-25T22:06:29.339Z,99.90
2019-06-25T22:08:57.779Z,99.90
2019-06-25T22:11:26.191Z,99.90
2019-06-25T22:13:54.582Z,99.90
2019-06-25T22:16:22.990Z,99.90
2019-06-25T22:18:51.382Z,99.90
2019-06-25T22:21:21.357Z,99.90
2019-06-25T22:23:49.955Z,99.90
2019-06-25T22:26:18.349Z,99.90
2019-06-25T22:28:46.742Z,99.90
2019-06-25T22:31:15.139Z,99.90
2019-06-25T22:33:43.535Z,99.90
2019-06-25T22:36:11.946Z,99.90
2019-06-25T22:38:40.340Z,99.90
2019-06-25T22:41:08.749Z,99.90
2019-06-25T22:43:37.143Z,99.90
2019-06-25T22:46:05.542Z,99.90
2019-06-25T22:48:33.941Z,99.90
2019-06-25T22:51:02.608Z,99.90
2019-06-25T22:53:31.014Z,99.90
2019-06-25T22:55:59.428Z,99.90
2019-06-25T22:58:27.814Z,99.90
2019-06-25T23:00:56.227Z,99.90
2019-06-25T23:03:24.613Z,99.90
2019-06-25T23:05:53.092Z,99.90
2019-06-25T23:08:21.502Z,99.90
2019-06-25T23:10:52.103Z,99.90
2019-06-25T23:13:20.508Z,99.90
2019-06-25T23:15:49.163Z,99.90
2019-06-25T23:18:17.764Z,99.90
2019-06-25T23:20:46.211Z,99.90
2019-06-25T23:23:14.977Z,99.90
2019-06-25T23:25:43.674Z,99.90
2019-06-25T23:28:12.391Z,99.90
2019-06-25T23:30:47.153Z,99.90
2019-06-25T23:33:13.221Z,99.90
2019-06-25T23:35:41.903Z,99.90
2019-06-25T23:38:10.296Z,99.90
2019-06-25T23:40:38.936Z,99.90
2019-06-25T23:43:10.836Z,99.90
2019-06-25T23:45:37.501Z,99.90
2019-06-25T23:48:05.961Z,99.90
2019-06-25T23:50:34.580Z,99.90
2019-06-25T23:53:03.009Z,99.90
2019-06-25T23:55:32.253Z,99.90
2019-06-25T23:58:00.894Z,99.90
